Time,TemperatureF,DewpointF,PressureIn,WindDirection,WindDirectionDegrees,WindSpeedMPH,WindSpeedGustMPH,Humidity,HourlyPrecipIn,Conditions,Clouds,dailyrainin,SoftwareType,DateUTC
2013-09-05 04:52:00,-999.0,-99.9,30.04,North,0,0.0,-999.0,-999,0.00,,,-99.99,,2013-09-05 08:52:00,
2013-09-05 05:03:00,-999.0,-99.9,30.04,North,0,0.0,-999.0,-999,0.00,,,-99.99,,2013-09-05 09:03:00,
2013-09-05 05:11:00,-999.0,-99.9,30.04,North,0,0.0,-999.0,-999,0.00,,,-99.99,,2013-09-05 09:11:00,
2013-09-05 05:22:00,-999.0,-99.9,30.04,North,0,0.0,-999.0,-999,0.00,,,-99.99,,2013-09-05 09:22:00,
2013-09-05 05:33:00,-999.0,-99.9,30.05,North,0,0.0,-999.0,-999,0.00,,,-99.99,,2013-09-05 09:33:00,
2013-09-05 05:43:00,-999.0,-99.9,30.05,ESE,120,3.0,-999.0,-999,0.00,,,-99.99,,2013-09-05 09:43:00,
2013-09-05 05:54:00,-999.0,-99.9,30.05,North,0,0.0,-999.0,-999,0.00,,,-99.99,,2013-09-05 09:54:00,
2013-09-05 06:03:00,-999.0,-99.9,30.05,North,0,0.0,-999.0,-999,0.00,,,-99.99,,2013-09-05 10:03:00,
2013-09-05 06:13:00,-999.0,-99.9,30.06,North,0,0.0,-999.0,-999,0.00,,,-99.99,,2013-09-05 10:13:00,
2013-09-05 06:23:00,-999.0,-99.9,30.06,SW,230,3.0,-999.0,-999,0.00,,,-99.99,,2013-09-05 10:23:00,
2013-09-05 06:33:00,-999.0,-99.9,30.06,North,0,0.0,-999.0,-999,0.00,,,-99.99,,2013-09-05 10:33:00,
2013-09-05 06:43:00,-999.0,-99.9,30.06,North,0,0.0,-999.0,-999,0.00,,,-99.99,,2013-09-05 10:43:00,
2013-09-05 06:53:00,-999.0,-99.9,30.07,North,0,0.0,-999.0,-999,0.00,,,-99.99,,2013-09-05 10:53:00,
2013-09-05 07:03:00,-999.0,-99.9,30.07,North,0,0.0,-999.0,-999,0.00,,,-99.99,,2013-09-05 11:03:00,
2013-09-05 07:12:00,-999.0,-99.9,30.07,North,0,0.0,-999.0,-999,0.00,,,-99.99,,2013-09-05 11:12:00,
2013-09-05 07:22:00,-999.0,-99.9,30.07,North,0,0.0,-999.0,-999,0.00,,,-99.99,,2013-09-05 11:22:00,
2013-09-05 07:34:00,-999.0,-99.9,30.08,North,0,0.0,-999.0,-999,0.00,,,-99.99,,2013-09-05 11:34:00,
2013-09-05 07:43:00,-999.0,-99.9,30.08,North,0,0.0,-999.0,-999,0.00,,,-99.99,,2013-09-05 11:43:00,
2013-09-05 07:52:00,-999.0,-99.9,30.08,North,0,0.0,-999.0,-999,0.00,,,-99.99,,2013-09-05 11:52:00,
2013-09-05 08:01:00,-999.0,-99.9,30.08,North,0,0.0,-999.0,-999,0.00,,,-99.99,,2013-09-05 12:01:00,
2013-09-05 08:13:00,-999.0,-99.9,30.09,North,0,0.0,-999.0,-999,0.00,,,0.00,,2013-09-05 12:13:00,
2013-09-05 08:22:00,-999.0,-99.9,30.09,SW,230,3.0,-999.0,-999,0.00,,,0.00,,2013-09-05 12:22:00,
2013-09-05 08:32:00,-999.0,-99.9,30.09,North,0,0.0,-999.0,-999,0.00,,,0.00,,2013-09-05 12:32:00,
2013-09-05 08:52:00,75.0,75.0,30.09,North,0,0.0,-999.0,100,0.00,,,0.00,,2013-09-05 12:52:00,
2013-09-05 09:01:00,75.0,75.0,30.09,North,0,0.0,-999.0,100,0.00,,,0.00,,2013-09-05 13:01:00,
2013-09-05 09:52:00,81.0,75.0,30.09,North,0,0.0,-999.0,83,0.00,,,-99.99,,2013-09-05 13:52:00,
2013-09-05 10:01:00,81.0,75.0,30.09,North,0,0.0,-999.0,83,0.00,,,-99.99,,2013-09-05 14:01:00,
2013-09-05 10:52:00,84.0,75.0,30.10,NW,310,5.0,-999.0,74,0.00,,,-99.99,,2013-09-05 14:52:00,
2013-09-05 11:01:00,84.0,75.0,30.10,NW,310,5.0,-999.0,74,0.00,,,-99.99,,2013-09-05 15:01:00,
2013-09-05 11:54:00,88.0,75.0,30.10,North,0,0.0,-999.0,66,0.00,,,-99.99,,2013-09-05 15:54:00,
2013-09-05 12:03:00,88.0,75.0,30.10,North,0,0.0,-999.0,66,0.00,,,-99.99,,2013-09-05 16:03:00,
2013-09-05 12:54:00,88.0,75.0,30.09,NNW,330,6.0,-999.0,66,0.00,,,-99.99,,2013-09-05 16:54:00,
2013-09-05 13:03:00,88.0,75.0,30.09,NNW,330,6.0,-999.0,66,0.00,,,-99.99,,2013-09-05 17:03:00,
2013-09-05 14:52:00,88.0,75.0,30.06,NNE,20,3.0,-999.0,66,0.00,,,-99.99,,2013-09-05 18:52:00,
2013-09-05 15:01:00,88.0,75.0,30.06,NNE,20,3.0,-999.0,66,0.00,,,-99.99,,2013-09-05 19:01:00,
2013-09-05 15:52:00,90.0,73.0,30.03,NNE,30,5.0,-999.0,59,0.00,,,-99.99,,2013-09-05 19:52:00,
2013-09-05 16:02:00,90.0,73.0,30.03,NNE,30,5.0,-999.0,59,0.00,,,-99.99,,2013-09-05 20:02:00,
2013-09-05 16:52:00,88.0,75.0,30.03,SE,130,8.0,-999.0,66,0.00,,,-99.99,,2013-09-05 20:52:00,
2013-09-05 17:02:00,88.0,75.0,30.03,SE,130,8.0,-999.0,66,0.00,,,-99.99,,2013-09-05 21:02:00,
2013-09-05 17:53:00,86.0,77.0,30.03,SE,140,5.0,-999.0,74,0.00,,,-99.99,,2013-09-05 21:53:00,
2013-09-05 18:04:00,86.0,77.0,30.03,SE,140,5.0,-999.0,74,0.00,,,-99.99,,2013-09-05 22:04:00,
2013-09-05 18:53:00,84.0,79.0,30.03,SSE,150,6.0,-999.0,83,0.00,,,-99.99,,2013-09-05 22:53:00,
2013-09-05 19:02:00,84.0,79.0,30.03,SSE,150,6.0,-999.0,83,0.00,,,-99.99,,2013-09-05 23:02:00,
2013-09-05 19:53:00,81.0,79.0,30.03,North,0,0.0,-999.0,94,0.00,,,-99.99,,2013-09-05 23:53:00,
2013-09-05 20:01:00,81.0,79.0,30.03,North,0,0.0,-999.0,94,0.00,,,-99.99,,2013-09-06 00:01:00,
2013-09-05 20:52:00,79.0,79.0,30.05,SE,130,3.0,-999.0,100,0.00,,,-99.99,,2013-09-06 00:52:00,
2013-09-05 21:01:00,79.0,79.0,30.05,SE,130,3.0,-999.0,100,0.00,,,-99.99,,2013-09-06 01:01:00,
2013-09-05 21:52:00,79.0,79.0,30.06,North,0,0.0,-999.0,100,0.00,,,-99.99,,2013-09-06 01:52:00,
2013-09-05 22:02:00,79.0,79.0,30.06,North,0,0.0,-999.0,100,0.00,,,-99.99,,2013-09-06 02:02:00,
2013-09-05 22:52:00,75.0,75.0,30.06,North,0,0.0,-999.0,100,0.00,,,-99.99,,2013-09-06 02:52:00,
2013-09-05 23:02:00,75.0,75.0,30.06,North,0,0.0,-999.0,100,0.00,,,-99.99,,2013-09-06 03:02:00,
2013-09-05 23:11:00,-999.0,-99.9,30.07,North,0,0.0,-999.0,-999,0.00,,,-99.99,,2013-09-06 03:11:00,
2013-09-05 23:22:00,-999.0,-99.9,30.06,North,0,0.0,-999.0,-999,0.00,,,-99.99,,2013-09-06 03:22:00,
2013-09-05 23:34:00,-999.0,-99.9,30.07,North,0,0.0,-999.0,-999,0.00,,,-99.99,,2013-09-06 03:34:00,
2013-09-05 23:44:00,-999.0,-99.9,30.06,North,0,0.0,-999.0,-999,0.00,,,-99.99,,2013-09-06 03:44:00,
2013-09-05 23:55:00,-999.0,-99.9,30.06,North,0,0.0,-999.0,-999,0.00,,,-99.99,,2013-09-06 03:55:00,